In Rescue
 
Open Full Screen Window  High Contrast Mode
Wind Gusting 00 knots
07
June 21, 2024 3:20 PM PDT
Weather Information
Wind Direction
  290 °
Wind Speed
  07 kt (8 mph)
Wind Gust
  00 kt (0 mph)
Altimeter
29.86 in
Visibility
7 SM
Temperature
13° C
55° F
Dewpoint
12° C
54° F
Humidity
94%
Sky Condition
Broken @ 800 ft
IFR

METAR KHAF 212220Z AUTO 29007KT 7SM BKN008 13/12 A2986 RMK AO2

FAA Disclaimer: The data displayed is for advisory purposes only and is not to be used for flight planning or operations.